Tecate, CA (91987)

9:46 AM PST on March 06, 2015 (GMT -0800)
PROTECCION CIVIL BC (TECATE) | Change Station
CLOSE
Current Station
Personal Weather Station
Location: Tecate, BAJA CALIFORNIA
Elevation: 1739 ft
Nearby Weather Stations
Active Advisory: Wind Advisory Active Notice: Public Information Statement

Elev 1739 ft 32.57 °N, 116.61 °W | Updated 6 minutes ago

Clear
Clear
68.1 °F
Feels Like 68.1 °F
N
2.0
Wind Variable Wind from ESE
Gusts 14.0 mph

Today
High -- | Low -- °F
--% Chance of Precip.
Yesterday
High -- | Low -- °F
Precip. -- in
6:08 AM 5:47 PM
Full, 99% visible
Pressure 30.11 in
Visibility 10.0 miles
Clouds Clear
Dew Point 20 °F
Humidity 16%
Rainfall in
Snow Depth Not available.
UV 2.5 out of 12
Pollen 8.90 out of 12
Air Quality Not available.
Flu Activity Not available.
METAR KSDM 061653Z 15003KT 10SM CLR 18/M03 A3012 RMK AO2 SLP195 T01831028

More Conditions Fewer Conditions

Pressure 30.11 in
Visibility 10.0 miles
Clouds Clear
Dew Point 20 °F
Humidity 16%
Rainfall in
Snow Depth Not available.
UV 2.5 out of 12
Pollen 8.90 out of 12
Air Quality Not available.
Flu Activity Not available.
METAR KSDM 061653Z 15003KT 10SM CLR 18/M03 A3012 RMK AO2 SLP195 T01831028

More Conditions Fewer Conditions

10-Day Weather Forecast

Almanac

Astronomy

Mar. 06, 2015 Rise Set
Actual Time
Civil Twilight
Nautical Twilight
Astronomical Twilight
Moon
Length of Visible Light
Length of Day
Tomorrow will be .
, % of the Moon is Illuminated

Today's Extremes

State Highs State Lows

Community

WunderPhotos

Upload Photos

1,803,347 photos uploaded!

WunderBlogs® & News

Nearby

Air Quality

  Air Quality AQ Index Pollutant
Not available.

Snow Depth

Station Depth Elevation

Earthquake Activity

City Distance Mag. Time & Date
Minimum magnitude displayed is 2.5.

Coastal Water Temperatures

Place Temperature

Nearby Weather Stations

Wind Advisory
Statement as of 3:05 AM PST on March 06, 2015

... Wind Advisory now in effect until noon PST Saturday...

* winds... areas of northeast to east winds 20 to 30 mph with gusts
to 50 mph.

* Location... inland areas near coastal mountain slopes.

* Timing... strongest winds this morning and again late tonight
through Saturday morning.

* Impacts... strong winds will make driving difficult for high
profile vehicles.

Precautionary/preparedness actions...

A Wind Advisory means that winds of 35 mph are expected. Winds
this strong can make driving difficult... especially for high
profile vehicles. Use extra caution.



For a detailed map of the hazard: